Asse, Belgium
Current Conditions -  °F | °C
As of 11:20 PM on Friday 24 Oct 2014 (Local Time) from EBBR Reporting Station
Moderate Rain Moderate Rain  
Wind Chill: 52°   Ceiling: 800
Heat Index: 52°   Visibility: 2.5mi
Dew Point: 48°   Wind: 14mph
Humidity: 88%   Direction: 210°SSW
Pressure: 30.03"   Gusts: NA
Location:  50.91°N, 4.2°E
Report Text: EBBR 242120Z 21012KT 4000 RA FEW006 BKN008 11/09 Q1017 BECMG 9999 -RA
Loading
Personal Weather Stations






























Interactive Weather Map
Tropical Storm Tracking
New forecast layout! Learn more

10-Day Weather Forecast

Advertisements
Track Severe Weather on mobile